sensor_id;sensor_type;location;lat;lon;timestamp;P1;durP1;ratioP1;P2;durP2;ratioP2
39936;SDS011;27803;42.740;23.340;2022-12-29T00:01:22;19.10;;;13.30;;
39936;SDS011;27803;42.740;23.340;2022-12-29T00:03:47;16.90;;;14.00;;
39936;SDS011;27803;42.740;23.340;2022-12-29T00:06:13;21.00;;;14.60;;
39936;SDS011;27803;42.740;23.340;2022-12-29T00:08:38;20.83;;;14.37;;
39936;SDS011;27803;42.740;23.340;2022-12-29T00:11:06;19.23;;;14.43;;
39936;SDS011;27803;42.740;23.340;2022-12-29T00:13:37;18.37;;;14.73;;
39936;SDS011;27803;42.740;23.340;2022-12-29T00:16:22;19.87;;;15.37;;
39936;SDS011;27803;42.740;23.340;2022-12-29T00:18:47;17.67;;;14.47;;
39936;SDS011;27803;42.740;23.340;2022-12-29T00:21:14;17.87;;;14.67;;
39936;SDS011;27803;42.740;23.340;2022-12-29T00:24:00;17.87;;;14.57;;
39936;SDS011;27803;42.740;23.340;2022-12-29T00:26:45;18.37;;;14.73;;
39936;SDS011;27803;42.740;23.340;2022-12-29T00:29:30;17.77;;;14.80;;
39936;SDS011;27803;42.740;23.340;2022-12-29T00:32:14;18.03;;;15.63;;
39936;SDS011;27803;42.740;23.340;2022-12-29T00:34:58;17.57;;;15.17;;
39936;SDS011;27803;42.740;23.340;2022-12-29T00:37:37;18.40;;;14.40;;
39936;SDS011;27803;42.740;23.340;2022-12-29T00:40:26;19.77;;;15.53;;
39936;SDS011;27803;42.740;23.340;2022-12-29T00:43:10;21.90;;;16.20;;
39936;SDS011;27803;42.740;23.340;2022-12-29T00:45:54;18.20;;;15.03;;
39936;SDS011;27803;42.740;23.340;2022-12-29T00:48:20;20.63;;;15.97;;
39936;SDS011;27803;42.740;23.340;2022-12-29T00:51:06;22.03;;;16.27;;
39936;SDS011;27803;42.740;23.340;2022-12-29T00:53:32;20.40;;;16.20;;
39936;SDS011;27803;42.740;23.340;2022-12-29T00:55:57;18.87;;;15.63;;
39936;SDS011;27803;42.740;23.340;2022-12-29T00:58:23;23.07;;;16.27;;
39936;SDS011;27803;42.740;23.340;2022-12-29T01:00:48;22.57;;;16.90;;
39936;SDS011;27803;42.740;23.340;2022-12-29T01:03:14;21.23;;;16.27;;
39936;SDS011;27803;42.740;23.340;2022-12-29T01:05:39;21.20;;;16.00;;
39936;SDS011;27803;42.740;23.340;2022-12-29T01:08:05;22.50;;;16.60;;
39936;SDS011;27803;42.740;23.340;2022-12-29T01:10:30;20.37;;;15.83;;
39936;SDS011;27803;42.740;23.340;2022-12-29T01:12:55;22.23;;;16.30;;
39936;SDS011;27803;42.740;23.340;2022-12-29T01:15:21;20.50;;;15.40;;
39936;SDS011;27803;42.740;23.340;2022-12-29T01:17:47;19.70;;;15.93;;
39936;SDS011;27803;42.740;23.340;2022-12-29T01:20:12;22.60;;;17.07;;
39936;SDS011;27803;42.740;23.340;2022-12-29T01:22:38;20.33;;;16.10;;
39936;SDS011;27803;42.740;23.340;2022-12-29T01:25:03;21.20;;;16.30;;
39936;SDS011;27803;42.740;23.340;2022-12-29T01:27:30;25.00;;;17.07;;
39936;SDS011;27803;42.740;23.340;2022-12-29T01:29:55;21.83;;;16.50;;
39936;SDS011;27803;42.740;23.340;2022-12-29T01:32:21;21.77;;;15.37;;
39936;SDS011;27803;42.740;23.340;2022-12-29T01:34:46;20.47;;;15.57;;
39936;SDS011;27803;42.740;23.340;2022-12-29T01:37:12;18.83;;;14.80;;
39936;SDS011;27803;42.740;23.340;2022-12-29T01:39:37;18.13;;;14.53;;
39936;SDS011;27803;42.740;23.340;2022-12-29T01:45:24;19.63;;;15.37;;
39936;SDS011;27803;42.740;23.340;2022-12-29T01:47:55;23.83;;;15.83;;
39936;SDS011;27803;42.740;23.340;2022-12-29T01:55:33;20.93;;;16.33;;
39936;SDS011;27803;42.740;23.340;2022-12-29T01:58:03;20.83;;;16.30;;
39936;SDS011;27803;42.740;23.340;2022-12-29T02:00:31;22.23;;;16.60;;
39936;SDS011;27803;42.740;23.340;2022-12-29T02:02:56;21.53;;;15.40;;
39936;SDS011;27803;42.740;23.340;2022-12-29T02:05:28;21.80;;;15.73;;
39936;SDS011;27803;42.740;23.340;2022-12-29T02:07:57;18.53;;;15.50;;
39936;SDS011;27803;42.740;23.340;2022-12-29T02:10:26;19.87;;;15.63;;
39936;SDS011;27803;42.740;23.340;2022-12-29T02:12:54;20.27;;;15.80;;
39936;SDS011;27803;42.740;23.340;2022-12-29T02:15:31;23.37;;;16.57;;
39936;SDS011;27803;42.740;23.340;2022-12-29T02:36:33;17.10;;;13.47;;
39936;SDS011;27803;42.740;23.340;2022-12-29T02:42:08;16.87;;;12.93;;
39936;SDS011;27803;42.740;23.340;2022-12-29T02:52:31;19.23;;;13.20;;
39936;SDS011;27803;42.740;23.340;2022-12-29T02:55:03;18.17;;;13.00;;
39936;SDS011;27803;42.740;23.340;2022-12-29T02:57:31;16.67;;;12.70;;
39936;SDS011;27803;42.740;23.340;2022-12-29T03:00:00;16.87;;;12.63;;
39936;SDS011;27803;42.740;23.340;2022-12-29T03:05:14;18.17;;;13.97;;
39936;SDS011;27803;42.740;23.340;2022-12-29T03:21:57;18.63;;;13.73;;
39936;SDS011;27803;42.740;23.340;2022-12-29T03:25:03;18.30;;;14.13;;
39936;SDS011;27803;42.740;23.340;2022-12-29T03:27:36;19.67;;;15.27;;
39936;SDS011;27803;42.740;23.340;2022-12-29T03:30:06;19.17;;;14.87;;
39936;SDS011;27803;42.740;23.340;2022-12-29T03:32:54;20.47;;;15.60;;
39936;SDS011;27803;42.740;23.340;2022-12-29T03:35:21;19.17;;;15.13;;
39936;SDS011;27803;42.740;23.340;2022-12-29T03:37:57;27.97;;;19.13;;
39936;SDS011;27803;42.740;23.340;2022-12-29T03:40:23;24.50;;;18.30;;
39936;SDS011;27803;42.740;23.340;2022-12-29T03:42:50;24.47;;;18.53;;
39936;SDS011;27803;42.740;23.340;2022-12-29T03:45:18;23.97;;;17.90;;
39936;SDS011;27803;42.740;23.340;2022-12-29T03:47:44;23.33;;;18.33;;
39936;SDS011;27803;42.740;23.340;2022-12-29T03:50:11;26.57;;;18.50;;
39936;SDS011;27803;42.740;23.340;2022-12-29T03:52:37;24.10;;;18.33;;
39936;SDS011;27803;42.740;23.340;2022-12-29T03:55:03;22.53;;;16.20;;
39936;SDS011;27803;42.740;23.340;2022-12-29T03:57:29;22.97;;;15.30;;
39936;SDS011;27803;42.740;23.340;2022-12-29T03:59:54;18.57;;;14.87;;
39936;SDS011;27803;42.740;23.340;2022-12-29T04:02:20;23.67;;;16.00;;
39936;SDS011;27803;42.740;23.340;2022-12-29T04:04:45;20.37;;;15.13;;
39936;SDS011;27803;42.740;23.340;2022-12-29T04:07:10;20.03;;;13.53;;
39936;SDS011;27803;42.740;23.340;2022-12-29T04:09:36;16.63;;;14.03;;
39936;SDS011;27803;42.740;23.340;2022-12-29T04:12:01;22.47;;;15.97;;
39936;SDS011;27803;42.740;23.340;2022-12-29T04:14:27;22.20;;;16.43;;
39936;SDS011;27803;42.740;23.340;2022-12-29T04:16:52;20.00;;;16.03;;
39936;SDS011;27803;42.740;23.340;2022-12-29T04:19:18;19.20;;;14.87;;
39936;SDS011;27803;42.740;23.340;2022-12-29T04:21:43;21.67;;;16.33;;
39936;SDS011;27803;42.740;23.340;2022-12-29T04:24:08;25.20;;;18.70;;
39936;SDS011;27803;42.740;23.340;2022-12-29T04:26:34;26.17;;;18.87;;
39936;SDS011;27803;42.740;23.340;2022-12-29T04:28:59;31.13;;;21.33;;
39936;SDS011;27803;42.740;23.340;2022-12-29T04:31:25;36.17;;;23.90;;
39936;SDS011;27803;42.740;23.340;2022-12-29T04:33:50;45.33;;;29.37;;
39936;SDS011;27803;42.740;23.340;2022-12-29T04:36:15;45.47;;;28.10;;
39936;SDS011;27803;42.740;23.340;2022-12-29T04:38:41;39.33;;;24.07;;
39936;SDS011;27803;42.740;23.340;2022-12-29T04:41:06;35.73;;;22.50;;
39936;SDS011;27803;42.740;23.340;2022-12-29T04:43:32;36.67;;;22.90;;
39936;SDS011;27803;42.740;23.340;2022-12-29T04:45:57;34.10;;;23.90;;
39936;SDS011;27803;42.740;23.340;2022-12-29T04:48:23;33.70;;;23.00;;
39936;SDS011;27803;42.740;23.340;2022-12-29T04:50:48;30.83;;;23.83;;
39936;SDS011;27803;42.740;23.340;2022-12-29T04:53:14;32.33;;;22.47;;
39936;SDS011;27803;42.740;23.340;2022-12-29T04:55:41;27.87;;;21.17;;
39936;SDS011;27803;42.740;23.340;2022-12-29T04:58:06;31.77;;;20.43;;
39936;SDS011;27803;42.740;23.340;2022-12-29T05:00:31;27.30;;;21.03;;
39936;SDS011;27803;42.740;23.340;2022-12-29T05:02:57;28.90;;;21.60;;
39936;SDS011;27803;42.740;23.340;2022-12-29T05:05:23;32.37;;;23.00;;
39936;SDS011;27803;42.740;23.340;2022-12-29T05:07:48;32.70;;;23.40;;
39936;SDS011;27803;42.740;23.340;2022-12-29T05:10:14;30.10;;;22.30;;
39936;SDS011;27803;42.740;23.340;2022-12-29T05:12:39;28.03;;;20.93;;
39936;SDS011;27803;42.740;23.340;2022-12-29T05:15:05;26.27;;;20.63;;
39936;SDS011;27803;42.740;23.340;2022-12-29T05:20:44;26.97;;;21.47;;
39936;SDS011;27803;42.740;23.340;2022-12-29T05:23:10;24.33;;;19.40;;
39936;SDS011;27803;42.740;23.340;2022-12-29T05:25:35;31.40;;;22.53;;
39936;SDS011;27803;42.740;23.340;2022-12-29T05:28:01;27.40;;;21.93;;
39936;SDS011;27803;42.740;23.340;2022-12-29T05:30:26;27.17;;;21.10;;
39936;SDS011;27803;42.740;23.340;2022-12-29T05:32:52;26.27;;;20.57;;
39936;SDS011;27803;42.740;23.340;2022-12-29T05:35:17;29.67;;;22.67;;
39936;SDS011;27803;42.740;23.340;2022-12-29T05:37:42;27.40;;;21.17;;
39936;SDS011;27803;42.740;23.340;2022-12-29T05:40:08;27.90;;;20.57;;
39936;SDS011;27803;42.740;23.340;2022-12-29T05:42:34;31.63;;;23.00;;
39936;SDS011;27803;42.740;23.340;2022-12-29T05:44:59;29.80;;;22.97;;
39936;SDS011;27803;42.740;23.340;2022-12-29T05:47:25;48.80;;;33.07;;
39936;SDS011;27803;42.740;23.340;2022-12-29T05:49:50;38.20;;;27.57;;
39936;SDS011;27803;42.740;23.340;2022-12-29T05:55:09;27.80;;;19.43;;
39936;SDS011;27803;42.740;23.340;2022-12-29T05:57:35;33.83;;;22.13;;
39936;SDS011;27803;42.740;23.340;2022-12-29T06:00:01;26.60;;;18.67;;
39936;SDS011;27803;42.740;23.340;2022-12-29T06:02:27;24.90;;;18.83;;
39936;SDS011;27803;42.740;23.340;2022-12-29T06:04:53;41.43;;;25.67;;
39936;SDS011;27803;42.740;23.340;2022-12-29T06:07:18;22.10;;;17.87;;
39936;SDS011;27803;42.740;23.340;2022-12-29T06:09:43;25.73;;;19.50;;
39936;SDS011;27803;42.740;23.340;2022-12-29T06:12:09;54.47;;;35.90;;
39936;SDS011;27803;42.740;23.340;2022-12-29T06:14:34;25.70;;;19.43;;
39936;SDS011;27803;42.740;23.340;2022-12-29T06:17:00;20.20;;;16.60;;
39936;SDS011;27803;42.740;23.340;2022-12-29T06:19:25;20.03;;;14.97;;
39936;SDS011;27803;42.740;23.340;2022-12-29T06:21:50;21.67;;;16.37;;
39936;SDS011;27803;42.740;23.340;2022-12-29T06:24:17;22.17;;;17.23;;
39936;SDS011;27803;42.740;23.340;2022-12-29T06:26:43;24.53;;;18.43;;
39936;SDS011;27803;42.740;23.340;2022-12-29T06:29:08;23.40;;;17.00;;
39936;SDS011;27803;42.740;23.340;2022-12-29T06:31:34;21.50;;;16.97;;
39936;SDS011;27803;42.740;23.340;2022-12-29T06:33:59;23.17;;;16.47;;
39936;SDS011;27803;42.740;23.340;2022-12-29T06:39:46;20.70;;;16.03;;
39936;SDS011;27803;42.740;23.340;2022-12-29T06:45:33;21.17;;;15.77;;
39936;SDS011;27803;42.740;23.340;2022-12-29T06:47:58;19.57;;;15.47;;
39936;SDS011;27803;42.740;23.340;2022-12-29T06:50:24;19.27;;;15.27;;
39936;SDS011;27803;42.740;23.340;2022-12-29T06:52:49;21.23;;;16.70;;
39936;SDS011;27803;42.740;23.340;2022-12-29T06:55:14;20.37;;;15.83;;
39936;SDS011;27803;42.740;23.340;2022-12-29T06:57:40;20.20;;;15.87;;
39936;SDS011;27803;42.740;23.340;2022-12-29T07:00:05;21.13;;;16.33;;
39936;SDS011;27803;42.740;23.340;2022-12-29T07:02:31;21.23;;;15.43;;
39936;SDS011;27803;42.740;23.340;2022-12-29T07:04:57;23.03;;;17.73;;
39936;SDS011;27803;42.740;23.340;2022-12-29T07:07:22;26.23;;;20.17;;
39936;SDS011;27803;42.740;23.340;2022-12-29T07:09:47;26.23;;;19.03;;
39936;SDS011;27803;42.740;23.340;2022-12-29T07:12:13;25.93;;;19.43;;
39936;SDS011;27803;42.740;23.340;2022-12-29T07:14:38;28.63;;;20.40;;
39936;SDS011;27803;42.740;23.340;2022-12-29T07:17:04;33.40;;;21.93;;
39936;SDS011;27803;42.740;23.340;2022-12-29T07:19:31;28.70;;;20.17;;
39936;SDS011;27803;42.740;23.340;2022-12-29T07:21:57;27.27;;;19.43;;
39936;SDS011;27803;42.740;23.340;2022-12-29T07:24:22;21.30;;;15.97;;
39936;SDS011;27803;42.740;23.340;2022-12-29T07:26:50;20.30;;;15.40;;
39936;SDS011;27803;42.740;23.340;2022-12-29T07:29:16;22.03;;;15.93;;
39936;SDS011;27803;42.740;23.340;2022-12-29T07:31:41;22.23;;;15.27;;
39936;SDS011;27803;42.740;23.340;2022-12-29T07:34:07;20.73;;;14.80;;
39936;SDS011;27803;42.740;23.340;2022-12-29T07:36:33;18.73;;;13.47;;
39936;SDS011;27803;42.740;23.340;2022-12-29T07:38:58;20.60;;;14.57;;
39936;SDS011;27803;42.740;23.340;2022-12-29T07:41:24;33.47;;;30.00;;
39936;SDS011;27803;42.740;23.340;2022-12-29T07:43:49;20.30;;;16.47;;
39936;SDS011;27803;42.740;23.340;2022-12-29T07:46:15;18.33;;;14.30;;
39936;SDS011;27803;42.740;23.340;2022-12-29T07:48:40;18.90;;;14.00;;
39936;SDS011;27803;42.740;23.340;2022-12-29T07:51:06;19.60;;;14.93;;
39936;SDS011;27803;42.740;23.340;2022-12-29T07:53:31;25.77;;;19.67;;
39936;SDS011;27803;42.740;23.340;2022-12-29T07:55:57;18.63;;;14.70;;
39936;SDS011;27803;42.740;23.340;2022-12-29T07:58:22;19.03;;;14.13;;
39936;SDS011;27803;42.740;23.340;2022-12-29T08:00:52;19.47;;;14.97;;
39936;SDS011;27803;42.740;23.340;2022-12-29T08:03:18;17.87;;;15.10;;
39936;SDS011;27803;42.740;23.340;2022-12-29T08:05:44;19.87;;;15.13;;
39936;SDS011;27803;42.740;23.340;2022-12-29T08:08:09;21.40;;;14.27;;
39936;SDS011;27803;42.740;23.340;2022-12-29T08:10:35;18.73;;;14.53;;
39936;SDS011;27803;42.740;23.340;2022-12-29T08:13:00;17.20;;;14.47;;
39936;SDS011;27803;42.740;23.340;2022-12-29T08:15:26;76.80;;;60.30;;
39936;SDS011;27803;42.740;23.340;2022-12-29T08:17:51;23.43;;;17.23;;
39936;SDS011;27803;42.740;23.340;2022-12-29T08:20:17;38.30;;;32.17;;
39936;SDS011;27803;42.740;23.340;2022-12-29T08:22:42;24.37;;;18.67;;
39936;SDS011;27803;42.740;23.340;2022-12-29T08:25:08;24.37;;;16.97;;
39936;SDS011;27803;42.740;23.340;2022-12-29T08:27:33;26.90;;;17.83;;
39936;SDS011;27803;42.740;23.340;2022-12-29T08:29:59;22.67;;;18.33;;
39936;SDS011;27803;42.740;23.340;2022-12-29T08:32:25;20.43;;;16.17;;
39936;SDS011;27803;42.740;23.340;2022-12-29T08:34:53;52.97;;;41.70;;
39936;SDS011;27803;42.740;23.340;2022-12-29T08:37:19;28.17;;;20.03;;
39936;SDS011;27803;42.740;23.340;2022-12-29T08:39:44;22.70;;;17.30;;
39936;SDS011;27803;42.740;23.340;2022-12-29T08:42:09;20.93;;;16.47;;
39936;SDS011;27803;42.740;23.340;2022-12-29T08:44:35;24.87;;;18.10;;
39936;SDS011;27803;42.740;23.340;2022-12-29T08:47:00;20.40;;;16.87;;
39936;SDS011;27803;42.740;23.340;2022-12-29T08:49:25;23.67;;;17.70;;
39936;SDS011;27803;42.740;23.340;2022-12-29T08:51:51;20.97;;;16.93;;
39936;SDS011;27803;42.740;23.340;2022-12-29T08:54:16;37.37;;;32.27;;
39936;SDS011;27803;42.740;23.340;2022-12-29T08:56:42;25.27;;;19.47;;
39936;SDS011;27803;42.740;23.340;2022-12-29T08:59:07;22.43;;;17.97;;
39936;SDS011;27803;42.740;23.340;2022-12-29T09:01:33;22.90;;;17.30;;
39936;SDS011;27803;42.740;23.340;2022-12-29T09:04:01;22.33;;;17.30;;
39936;SDS011;27803;42.740;23.340;2022-12-29T09:06:26;29.60;;;23.13;;
39936;SDS011;27803;42.740;23.340;2022-12-29T09:08:53;21.10;;;16.23;;
39936;SDS011;27803;42.740;23.340;2022-12-29T09:11:20;35.47;;;25.03;;
39936;SDS011;27803;42.740;23.340;2022-12-29T09:13:48;24.13;;;16.60;;
39936;SDS011;27803;42.740;23.340;2022-12-29T09:16:13;23.23;;;17.43;;
39936;SDS011;27803;42.740;23.340;2022-12-29T09:18:39;20.70;;;15.98;;
39936;SDS011;27803;42.740;23.340;2022-12-29T09:21:06;21.60;;;16.37;;
39936;SDS011;27803;42.740;23.340;2022-12-29T09:23:32;26.75;;;16.63;;
39936;SDS011;27803;42.740;23.340;2022-12-29T09:25:58;20.97;;;16.70;;
39936;SDS011;27803;42.740;23.340;2022-12-29T09:28:24;25.30;;;18.63;;
39936;SDS011;27803;42.740;23.340;2022-12-29T09:30:50;20.67;;;15.52;;
39936;SDS011;27803;42.740;23.340;2022-12-29T09:33:16;22.45;;;17.23;;
39936;SDS011;27803;42.740;23.340;2022-12-29T09:35:45;18.23;;;14.82;;
39936;SDS011;27803;42.740;23.340;2022-12-29T09:38:22;17.88;;;14.60;;
39936;SDS011;27803;42.740;23.340;2022-12-29T09:40:49;17.95;;;13.70;;
39936;SDS011;27803;42.740;23.340;2022-12-29T09:48:31;15.85;;;13.55;;
39936;SDS011;27803;42.740;23.340;2022-12-29T09:51:00;12.73;;;10.88;;
39936;SDS011;27803;42.740;23.340;2022-12-29T09:53:31;12.45;;;10.13;;
39936;SDS011;27803;42.740;23.340;2022-12-29T09:56:03;12.43;;;9.50;;
39936;SDS011;27803;42.740;23.340;2022-12-29T09:58:41;20.00;;;17.87;;
39936;SDS011;27803;42.740;23.340;2022-12-29T10:01:17;12.70;;;10.23;;
39936;SDS011;27803;42.740;23.340;2022-12-29T10:03:51;12.73;;;10.55;;
39936;SDS011;27803;42.740;23.340;2022-12-29T10:06:22;12.95;;;10.10;;
39936;SDS011;27803;42.740;23.340;2022-12-29T10:09:17;13.13;;;10.32;;
39936;SDS011;27803;42.740;23.340;2022-12-29T10:15:14;14.43;;;10.15;;
39936;SDS011;27803;42.740;23.340;2022-12-29T10:18:18;14.07;;;11.98;;
39936;SDS011;27803;42.740;23.340;2022-12-29T10:21:00;14.35;;;11.68;;
39936;SDS011;27803;42.740;23.340;2022-12-29T10:23:43;15.68;;;12.32;;
39936;SDS011;27803;42.740;23.340;2022-12-29T10:26:14;17.27;;;13.65;;
39936;SDS011;27803;42.740;23.340;2022-12-29T10:28:47;17.27;;;13.45;;
39936;SDS011;27803;42.740;23.340;2022-12-29T10:31:16;16.73;;;12.45;;
39936;SDS011;27803;42.740;23.340;2022-12-29T10:33:48;16.90;;;11.85;;
39936;SDS011;27803;42.740;23.340;2022-12-29T10:39:05;12.13;;;10.43;;
39936;SDS011;27803;42.740;23.340;2022-12-29T10:41:34;14.52;;;11.00;;
39936;SDS011;27803;42.740;23.340;2022-12-29T10:44:07;15.50;;;11.52;;
39936;SDS011;27803;42.740;23.340;2022-12-29T10:46:35;15.40;;;12.68;;
39936;SDS011;27803;42.740;23.340;2022-12-29T10:49:06;13.75;;;12.10;;
39936;SDS011;27803;42.740;23.340;2022-12-29T10:51:38;14.38;;;11.73;;
39936;SDS011;27803;42.740;23.340;2022-12-29T10:56:52;26.67;;;18.98;;
39936;SDS011;27803;42.740;23.340;2022-12-29T10:59:39;14.15;;;11.77;;
39936;SDS011;27803;42.740;23.340;2022-12-29T11:07:19;127.18;;;77.68;;
39936;SDS011;27803;42.740;23.340;2022-12-29T11:09:46;46.58;;;32.05;;
39936;SDS011;27803;42.740;23.340;2022-12-29T11:12:28;14.35;;;11.30;;
39936;SDS011;27803;42.740;23.340;2022-12-29T11:15:14;14.73;;;11.95;;
39936;SDS011;27803;42.740;23.340;2022-12-29T11:17:44;16.60;;;11.80;;
39936;SDS011;27803;42.740;23.340;2022-12-29T11:23:04;15.65;;;12.27;;
39936;SDS011;27803;42.740;23.340;2022-12-29T11:25:46;16.02;;;13.02;;
39936;SDS011;27803;42.740;23.340;2022-12-29T11:28:26;14.43;;;12.10;;
39936;SDS011;27803;42.740;23.340;2022-12-29T11:30:59;18.95;;;15.52;;
39936;SDS011;27803;42.740;23.340;2022-12-29T11:33:30;19.60;;;14.45;;
39936;SDS011;27803;42.740;23.340;2022-12-29T11:35:57;19.77;;;14.73;;
39936;SDS011;27803;42.740;23.340;2022-12-29T11:38:26;15.07;;;12.93;;
39936;SDS011;27803;42.740;23.340;2022-12-29T11:41:02;16.25;;;13.93;;
39936;SDS011;27803;42.740;23.340;2022-12-29T11:46:05;14.70;;;12.95;;
39936;SDS011;27803;42.740;23.340;2022-12-29T11:48:32;15.27;;;12.43;;
39936;SDS011;27803;42.740;23.340;2022-12-29T11:51:04;18.48;;;13.63;;
39936;SDS011;27803;42.740;23.340;2022-12-29T11:56:17;15.57;;;11.75;;
39936;SDS011;27803;42.740;23.340;2022-12-29T11:58:47;12.32;;;10.90;;
39936;SDS011;27803;42.740;23.340;2022-12-29T12:03:50;15.40;;;11.63;;
39936;SDS011;27803;42.740;23.340;2022-12-29T12:06:40;17.33;;;12.68;;
39936;SDS011;27803;42.740;23.340;2022-12-29T12:09:25;15.23;;;12.82;;
39936;SDS011;27803;42.740;23.340;2022-12-29T12:11:57;18.48;;;15.52;;
39936;SDS011;27803;42.740;23.340;2022-12-29T12:14:30;20.40;;;17.10;;
39936;SDS011;27803;42.740;23.340;2022-12-29T12:16:59;17.90;;;14.70;;
39936;SDS011;27803;42.740;23.340;2022-12-29T12:19:38;19.27;;;14.63;;
39936;SDS011;27803;42.740;23.340;2022-12-29T12:25:12;18.00;;;14.23;;
39936;SDS011;27803;42.740;23.340;2022-12-29T12:27:48;20.42;;;14.82;;
39936;SDS011;27803;42.740;23.340;2022-12-29T12:30:20;20.35;;;14.77;;
39936;SDS011;27803;42.740;23.340;2022-12-29T12:32:50;17.85;;;14.30;;
39936;SDS011;27803;42.740;23.340;2022-12-29T12:43:39;21.42;;;14.27;;
39936;SDS011;27803;42.740;23.340;2022-12-29T12:49:17;17.83;;;14.57;;
39936;SDS011;27803;42.740;23.340;2022-12-29T12:59:42;19.63;;;15.43;;
39936;SDS011;27803;42.740;23.340;2022-12-29T13:05:05;22.60;;;15.52;;
39936;SDS011;27803;42.740;23.340;2022-12-29T13:08:03;22.27;;;16.13;;
39936;SDS011;27803;42.740;23.340;2022-12-29T13:11:02;21.83;;;16.58;;
39936;SDS011;27803;42.740;23.340;2022-12-29T13:14:03;18.88;;;15.95;;
39936;SDS011;27803;42.740;23.340;2022-12-29T13:16:40;23.67;;;17.75;;
39936;SDS011;27803;42.740;23.340;2022-12-29T13:22:09;22.10;;;16.67;;
39936;SDS011;27803;42.740;23.340;2022-12-29T13:25:10;18.90;;;16.17;;
39936;SDS011;27803;42.740;23.340;2022-12-29T13:30:22;19.67;;;14.98;;
39936;SDS011;27803;42.740;23.340;2022-12-29T13:38:36;27.70;;;16.92;;
39936;SDS011;27803;42.740;23.340;2022-12-29T13:41:08;19.55;;;15.82;;
39936;SDS011;27803;42.740;23.340;2022-12-29T13:43:39;26.33;;;20.77;;
39936;SDS011;27803;42.740;23.340;2022-12-29T13:46:18;23.90;;;17.75;;
39936;SDS011;27803;42.740;23.340;2022-12-29T13:48:52;66.15;;;36.78;;
39936;SDS011;27803;42.740;23.340;2022-12-29T13:51:22;50.30;;;31.88;;
39936;SDS011;27803;42.740;23.340;2022-12-29T13:53:57;34.53;;;24.73;;
39936;SDS011;27803;42.740;23.340;2022-12-29T13:56:41;27.88;;;21.05;;
39936;SDS011;27803;42.740;23.340;2022-12-29T14:02:04;28.60;;;22.30;;
39936;SDS011;27803;42.740;23.340;2022-12-29T14:04:34;29.98;;;22.35;;
39936;SDS011;27803;42.740;23.340;2022-12-29T14:07:05;31.92;;;24.15;;
39936;SDS011;27803;42.740;23.340;2022-12-29T14:12:19;37.78;;;28.48;;
39936;SDS011;27803;42.740;23.340;2022-12-29T14:15:14;37.50;;;26.05;;
39936;SDS011;27803;42.740;23.340;2022-12-29T14:17:58;36.75;;;27.33;;
39936;SDS011;27803;42.740;23.340;2022-12-29T14:20:28;35.47;;;25.30;;
39936;SDS011;27803;42.740;23.340;2022-12-29T14:28:29;49.88;;;35.92;;
39936;SDS011;27803;42.740;23.340;2022-12-29T14:30:57;45.63;;;33.15;;
39936;SDS011;27803;42.740;23.340;2022-12-29T14:33:25;47.22;;;34.58;;
39936;SDS011;27803;42.740;23.340;2022-12-29T14:35:52;45.67;;;31.92;;
39936;SDS011;27803;42.740;23.340;2022-12-29T14:40:48;48.83;;;32.45;;
39936;SDS011;27803;42.740;23.340;2022-12-29T14:43:18;57.53;;;38.67;;
39936;SDS011;27803;42.740;23.340;2022-12-29T14:45:54;61.92;;;41.95;;
39936;SDS011;27803;42.740;23.340;2022-12-29T14:48:30;56.17;;;37.70;;
39936;SDS011;27803;42.740;23.340;2022-12-29T14:51:00;48.40;;;35.13;;
39936;SDS011;27803;42.740;23.340;2022-12-29T14:53:49;46.08;;;33.03;;
39936;SDS011;27803;42.740;23.340;2022-12-29T14:56:16;39.08;;;28.15;;
39936;SDS011;27803;42.740;23.340;2022-12-29T15:01:23;35.45;;;27.77;;
39936;SDS011;27803;42.740;23.340;2022-12-29T15:03:53;45.08;;;29.38;;
39936;SDS011;27803;42.740;23.340;2022-12-29T15:06:23;45.50;;;31.00;;
39936;SDS011;27803;42.740;23.340;2022-12-29T15:08:59;43.40;;;32.58;;
39936;SDS011;27803;42.740;23.340;2022-12-29T15:14:01;47.78;;;33.08;;
39936;SDS011;27803;42.740;23.340;2022-12-29T15:16:31;42.28;;;29.10;;
39936;SDS011;27803;42.740;23.340;2022-12-29T15:18:59;33.65;;;26.00;;
39936;SDS011;27803;42.740;23.340;2022-12-29T15:21:26;40.55;;;29.20;;
39936;SDS011;27803;42.740;23.340;2022-12-29T15:23:54;41.63;;;28.60;;
39936;SDS011;27803;42.740;23.340;2022-12-29T15:26:20;43.95;;;30.75;;
39936;SDS011;27803;42.740;23.340;2022-12-29T15:28:48;52.05;;;34.33;;
39936;SDS011;27803;42.740;23.340;2022-12-29T15:31:17;63.08;;;41.38;;
39936;SDS011;27803;42.740;23.340;2022-12-29T15:33:44;53.28;;;36.58;;
39936;SDS011;27803;42.740;23.340;2022-12-29T15:36:19;50.35;;;33.70;;
39936;SDS011;27803;42.740;23.340;2022-12-29T15:38:50;55.10;;;35.20;;
39936;SDS011;27803;42.740;23.340;2022-12-29T15:41:28;73.77;;;49.47;;
39936;SDS011;27803;42.740;23.340;2022-12-29T15:47:03;127.67;;;66.97;;
39936;SDS011;27803;42.740;23.340;2022-12-29T15:49:30;122.27;;;70.17;;
39936;SDS011;27803;42.740;23.340;2022-12-29T15:51:56;91.80;;;54.77;;
39936;SDS011;27803;42.740;23.340;2022-12-29T15:54:23;101.47;;;57.73;;
39936;SDS011;27803;42.740;23.340;2022-12-29T15:56:49;128.17;;;73.00;;
39936;SDS011;27803;42.740;23.340;2022-12-29T16:01:57;124.23;;;69.00;;
39936;SDS011;27803;42.740;23.340;2022-12-29T16:04:33;118.70;;;65.67;;
39936;SDS011;27803;42.740;23.340;2022-12-29T16:09:33;110.27;;;64.37;;
39936;SDS011;27803;42.740;23.340;2022-12-29T16:12:02;112.47;;;67.23;;
39936;SDS011;27803;42.740;23.340;2022-12-29T16:14:50;93.03;;;57.40;;
39936;SDS011;27803;42.740;23.340;2022-12-29T16:17:22;106.30;;;66.80;;
39936;SDS011;27803;42.740;23.340;2022-12-29T16:19:56;86.63;;;57.77;;
39936;SDS011;27803;42.740;23.340;2022-12-29T16:25:04;81.57;;;55.90;;
39936;SDS011;27803;42.740;23.340;2022-12-29T16:27:37;68.03;;;47.20;;
39936;SDS011;27803;42.740;23.340;2022-12-29T16:30:06;70.77;;;46.50;;
39936;SDS011;27803;42.740;23.340;2022-12-29T16:32:46;64.63;;;43.90;;
39936;SDS011;27803;42.740;23.340;2022-12-29T16:35:16;74.07;;;49.13;;
39936;SDS011;27803;42.740;23.340;2022-12-29T16:37:48;61.23;;;39.40;;
39936;SDS011;27803;42.740;23.340;2022-12-29T16:40:32;79.13;;;51.17;;
39936;SDS011;27803;42.740;23.340;2022-12-29T16:43:22;66.10;;;46.73;;
39936;SDS011;27803;42.740;23.340;2022-12-29T16:48:18;70.60;;;44.83;;
39936;SDS011;27803;42.740;23.340;2022-12-29T16:50:46;61.57;;;42.83;;
39936;SDS011;27803;42.740;23.340;2022-12-29T16:53:21;67.13;;;43.07;;
39936;SDS011;27803;42.740;23.340;2022-12-29T16:55:51;67.67;;;39.77;;
39936;SDS011;27803;42.740;23.340;2022-12-29T16:58:19;103.87;;;66.00;;
39936;SDS011;27803;42.740;23.340;2022-12-29T17:00:49;57.63;;;36.97;;
39936;SDS011;27803;42.740;23.340;2022-12-29T17:03:17;63.40;;;43.80;;
39936;SDS011;27803;42.740;23.340;2022-12-29T17:05:43;81.27;;;51.03;;
39936;SDS011;27803;42.740;23.340;2022-12-29T17:08:18;76.90;;;50.10;;
39936;SDS011;27803;42.740;23.340;2022-12-29T17:10:51;73.13;;;49.13;;